Grey Cloud Island, MN

4:25 AM CDT on March 29, 2015 (GMT -0500)
Grey Cloud Island | | Change Station
CLOSE
Current Station
Personal Weather Station
Location: Grey Cloud Island, MN
Elevation: 700 ft
Nearby Weather Stations
Active Advisory: Wind Advisory

Elev 700 ft 44.80 °N, 92.99 °W | Updated 5 seconds ago

Clear
Clear
35.7 °F
Feels Like 31 °F
N
5.0
Wind Variable Wind from SW
Gusts 13.0 mph

Today
High -- | Low -- °F
--% Chance of Precip.
Yesterday
High -- | Low -- °F
Precip. -- in
6:58 AM 7:35 PM
Waxing Gibbous, 70% visible
Pressure 29.84 in
Visibility 10.0 miles
Clouds Scattered Clouds 4600 ft
Mostly Cloudy 6500 ft
Overcast 7500 ft
Windchill 31 °F
Dew Point 28 °F
Humidity 74%
Rainfall 0.00 in
Snow Depth Not available.
UV 0 out of 12
Pollen 1.80 out of 12
Air Quality Not available.
Flu Activity Not available.
METAR KSGS 290911Z AUTO 19012G18KT 10SM -RA SCT046 BKN065 OVC075 02/M03 A2984 RMK AO2 T00221031

More Conditions Fewer Conditions

Pressure 29.84 in
Visibility 10.0 miles
Clouds Scattered Clouds 4600 ft
Mostly Cloudy 6500 ft
Overcast 7500 ft
Windchill 31 °F
Dew Point 28 °F
Humidity 74%
Rainfall 0.00 in
Snow Depth Not available.
UV 0 out of 12
Pollen 1.80 out of 12
Air Quality Not available.
Flu Activity Not available.
METAR KSGS 290911Z AUTO 19012G18KT 10SM -RA SCT046 BKN065 OVC075 02/M03 A2984 RMK AO2 T00221031

More Conditions Fewer Conditions

10-Day Weather Forecast

Almanac

Astronomy

Mar. 29, 2015 Rise Set
Actual Time
Civil Twilight
Nautical Twilight
Astronomical Twilight
Moon
Length of Visible Light
Length of Day
Tomorrow will be .
, % of the Moon is Illuminated

Today's Extremes

State Highs State Lows

Community

WunderPhotos

Upload Photos

1,809,187 photos uploaded!

WunderBlogs® & News

Nearby

Air Quality

  Air Quality AQ Index Pollutant
Not available.

Snow Depth

Station Depth Elevation

Earthquake Activity

City Distance Mag. Time & Date
Minimum magnitude displayed is 2.5.

Coastal Water Temperatures

Place Temperature

Stations

Nearby Weather Stations

Station Location Temp. Windchill Dew Point Humidity Wind Precip. Elev Updated Type
                   
Wind Advisory
Statement as of 4:08 AM CDT on March 29, 2015

... Wind Advisory in effect from 11 am this morning to 6 PM CDT
this evening...

The National Weather Service in Twin Cities/Chanhassen has issued
a Wind Advisory... which is in effect from 11 am this morning to
6 PM CDT this evening.

* Timing... from late morning through the afternoon.

* Winds... northwest 30 to 35 mph with gusts near 45 mph.

* Impacts... driving may be difficult at times... especially for
high profile and light weight vehicles. Unsecured outdoor
items will be blown around.

Precautionary/preparedness actions...

A Wind Advisory means that sustained winds of 30 to 39 mph or
gusts between 45 and 57 mph are expected. Winds this strong can
make driving difficult... especially for high profile vehicles.
Use extra caution.